Time;durP1;ratioP1;P1;durP2;ratioP2;P2;SDS_P1;SDS_P2;PMS_P1;PMS_P2;Temp;Humidity;BMP_temperature;BMP_pressure;BME280_temperature;BME280_humidity;BME280_pressure;Samples;Min_cycle;Max_cycle;Signal;HPM_P1;HPM_P2
2023/08/17 00:00:14;;;;;;;6.05;5.55;;;;;;;24.57;72.74;95555.47;6304270;22;20187;-81
2023/08/17 00:02:40;;;;;;;5.53;5.13;;;;;;;24.26;74.65;95603.88;6302764;22;20175;-81
2023/08/17 00:05:07;;;;;;;5.68;5.18;;;;;;;24.26;73.99;95593.34;6303130;22;20195;-81
2023/08/17 00:07:33;;;;;;;6.18;5.57;;;;;;;24.28;74.60;95609.66;6304560;22;20172;-81
2023/08/17 00:10:00;;;;;;;5.75;5.20;;;;;;;24.31;74.53;95606.50;6303766;22;20171;-82
2023/08/17 00:12:26;;;;;;;7.60;5.35;;;;;;;24.35;74.16;95603.09;6304183;22;20230;-81
2023/08/17 00:14:54;;;;;;;6.13;5.50;;;;;;;24.33;74.42;95607.03;6303586;22;20197;-81
2023/08/17 00:17:21;;;;;;;6.97;6.15;;;;;;;24.36;74.28;95606.53;6304212;22;20571;-81
2023/08/17 00:19:47;;;;;;;6.30;5.65;;;;;;;24.38;74.13;95599.97;6303608;22;20179;-81
2023/08/17 00:22:14;;;;;;;6.32;5.80;;;;;;;24.38;74.75;95602.59;6304371;22;20213;-81
2023/08/17 00:24:41;;;;;;;5.75;5.25;;;;;;;24.42;73.93;95584.44;6303565;22;20744;-81
2023/08/17 00:27:08;;;;;;;5.70;5.10;;;;;;;24.39;73.95;95585.75;6303274;22;20183;-81
2023/08/17 00:29:35;;;;;;;5.35;4.90;;;;;;;24.33;73.79;95580.72;6303444;22;20175;-81
2023/08/17 00:32:03;;;;;;;6.75;5.20;;;;;;;24.25;74.17;95589.94;6303043;22;20175;-81
2023/08/17 00:34:30;;;;;;;6.03;5.53;;;;;;;24.25;74.33;95594.41;6302574;22;20178;-82
2023/08/17 00:36:56;;;;;;;5.97;5.47;;;;;;;24.21;74.15;95603.84;6303073;22;20175;-82
2023/08/17 00:39:23;;;;;;;5.68;5.28;;;;;;;24.18;74.54;95605.16;6303182;22;20195;-82
2023/08/17 00:41:49;;;;;;;6.22;5.63;;;;;;;24.24;74.36;95598.09;6301880;22;20175;-81
2023/08/17 00:44:15;;;;;;;6.25;5.65;;;;;;;24.25;74.54;95610.19;6303717;22;20176;-81
2023/08/17 00:46:42;;;;;;;6.50;6.00;;;;;;;24.31;74.06;95601.25;6303570;22;20226;-81
2023/08/17 00:49:11;;;;;;;6.57;6.07;;;;;;;24.41;73.97;95606.53;6303413;22;20652;-80
2023/08/17 00:51:39;;;;;;;6.45;5.95;;;;;;;24.36;74.29;95604.69;6303117;22;20175;-81
2023/08/17 00:54:05;;;;;;;5.78;5.28;;;;;;;24.30;74.49;95611.00;6302834;22;20175;-80
2023/08/17 00:56:32;;;;;;;5.72;5.25;;;;;;;24.24;74.67;95598.09;6302583;22;20249;-82
2023/08/17 00:58:59;;;;;;;5.90;5.50;;;;;;;24.22;74.21;95594.91;6302518;22;20195;-81
2023/08/17 01:01:25;;;;;;;5.53;5.13;;;;;;;24.20;74.55;95597.03;6302455;22;20513;-82
2023/08/17 01:03:52;;;;;;;8.35;5.93;;;;;;;24.16;74.84;95595.94;6302360;22;20175;-82
2023/08/17 01:06:20;;;;;;;6.18;5.68;;;;;;;24.17;74.55;95600.97;6302213;22;20797;-81
2023/08/17 01:08:47;;;;;;;6.00;5.50;;;;;;;24.20;74.75;95597.81;6303001;22;20506;-81
2023/08/17 01:11:23;;;;;;;5.70;5.20;;;;;;;24.23;75.17;95602.56;6302781;22;20175;-81
2023/08/17 01:13:56;;;;;;;6.05;5.60;;;;;;;24.19;75.28;95611.22;6303021;22;20159;-80
2023/08/17 01:16:27;;;;;;;5.93;5.43;;;;;;;24.02;76.11;95638.56;6302898;22;20203;-81
2023/08/17 01:18:56;;;;;;;6.28;5.63;;;;;;;23.89;76.57;95656.66;6303894;22;20176;-81
2023/08/17 01:21:25;;;;;;;6.30;5.70;;;;;;;23.77;77.49;95664.78;6303424;22;20193;-81
2023/08/17 01:23:53;;;;;;;6.00;5.45;;;;;;;23.76;77.01;95663.19;6302452;22;20175;-82
2023/08/17 01:26:19;;;;;;;5.72;5.20;;;;;;;23.77;77.09;95667.41;6304039;22;20196;-82
2023/08/17 01:28:47;;;;;;;5.78;4.88;;;;;;;23.80;77.02;95655.56;6304253;22;20176;-82
2023/08/17 01:31:20;;;;;;;6.40;5.90;;;;;;;23.73;77.49;95672.38;6303046;22;20171;-81
2023/08/17 01:33:52;;;;;;;5.88;5.47;;;;;;;23.81;77.18;95659.78;6303254;22;20661;-82
2023/08/17 01:36:21;;;;;;;6.60;5.90;;;;;;;23.83;77.42;95660.31;6303745;22;20206;-81
2023/08/17 01:38:51;;;;;;;6.18;5.68;;;;;;;23.90;76.92;95653.75;6303138;22;20203;-82
2023/08/17 01:41:21;;;;;;;6.45;5.82;;;;;;;23.84;77.22;95656.66;6303031;22;20174;-81
2023/08/17 01:43:49;;;;;;;6.78;6.10;;;;;;;23.79;77.53;95664.50;6303251;22;20159;-81
2023/08/17 01:46:16;;;;;;;6.78;6.18;;;;;;;23.83;77.81;95663.75;6303431;22;20199;-81
2023/08/17 01:48:42;;;;;;;6.32;5.85;;;;;;;23.58;78.37;95674.16;6304954;22;20176;-81
2023/08/17 01:51:09;;;;;;;5.70;5.30;;;;;;;23.57;78.76;95680.44;6305526;22;20628;-82
2023/08/17 01:53:35;;;;;;;6.80;6.20;;;;;;;23.62;78.30;95676.03;6305283;22;20245;-81
2023/08/17 01:56:02;;;;;;;6.57;5.97;;;;;;;23.68;78.30;95664.44;6304783;22;20196;-81
2023/08/17 01:58:29;;;;;;;6.32;5.78;;;;;;;23.59;79.34;95676.53;6305956;22;20180;-81
2023/08/17 02:00:56;;;;;;;6.30;5.78;;;;;;;23.56;79.01;95677.03;6305062;22;20172;-81
2023/08/17 02:03:22;;;;;;;5.88;5.38;;;;;;;23.62;79.11;95677.84;6305747;22;20500;-81
2023/08/17 02:05:49;;;;;;;5.78;5.28;;;;;;;23.60;79.26;95683.38;6304488;22;20701;-81
2023/08/17 02:08:15;;;;;;;6.28;5.70;;;;;;;23.66;79.23;95679.72;6304827;22;20172;-81
2023/08/17 02:10:42;;;;;;;6.70;6.10;;;;;;;23.62;78.99;95673.38;6304573;22;20215;-81
2023/08/17 02:13:08;;;;;;;6.80;6.20;;;;;;;23.50;79.97;95695.63;6304849;22;20182;-81
2023/08/17 02:15:40;;;;;;;6.75;6.15;;;;;;;23.25;81.30;95714.66;6304460;22;20199;-82
2023/08/17 02:18:06;;;;;;;6.68;6.15;;;;;;;23.32;80.90;95707.34;6305057;22;20183;-82
2023/08/17 02:20:33;;;;;;;6.75;6.15;;;;;;;23.43;79.87;95695.88;6304806;22;20171;-81
2023/08/17 02:23:00;;;;;;;7.00;6.40;;;;;;;23.50;79.77;95675.38;6304873;22;20544;-81
2023/08/17 02:25:26;;;;;;;6.97;6.32;;;;;;;23.37;80.90;95699.50;6303755;22;20682;-81
2023/08/17 02:27:53;;;;;;;6.35;5.95;;;;;;;23.36;80.59;95692.66;6303839;22;20266;-81
2023/08/17 02:30:19;;;;;;;6.80;6.20;;;;;;;23.47;79.75;95678.53;6304693;22;20566;-81
2023/08/17 02:32:47;;;;;;;6.35;5.85;;;;;;;23.41;80.52;95672.47;6304368;22;20813;-81
2023/08/17 02:35:13;;;;;;;6.53;5.85;;;;;;;23.41;80.53;95674.31;6303813;22;20191;-81
2023/08/17 02:37:39;;;;;;;7.05;6.45;;;;;;;23.39;80.43;95679.81;6304315;22;20172;-81
2023/08/17 02:40:07;;;;;;;6.43;5.90;;;;;;;23.35;81.18;95698.97;6304367;22;20179;-82
2023/08/17 02:42:34;;;;;;;6.72;6.13;;;;;;;23.36;80.73;95695.28;6304077;22;20176;-80
2023/08/17 02:45:00;;;;;;;6.80;6.20;;;;;;;23.27;81.19;95696.81;6303065;22;20198;-81
2023/08/17 02:47:26;;;;;;;6.53;6.03;;;;;;;23.26;81.17;95700.50;6303602;22;20196;-81
2023/08/17 02:49:54;;;;;;;6.47;5.90;;;;;;;23.32;80.92;95696.84;6303734;22;20171;-81
2023/08/17 02:52:21;;;;;;;6.63;6.10;;;;;;;23.32;80.58;95684.47;6303609;22;20183;-81
2023/08/17 02:54:47;;;;;;;6.15;5.65;;;;;;;23.30;80.70;95693.66;6303369;22;20211;-81
2023/08/17 02:57:14;;;;;;;6.03;5.63;;;;;;;23.41;80.29;95690.84;6303472;22;20179;-81
2023/08/17 02:59:40;;;;;;;6.18;5.57;;;;;;;23.40;80.35;95681.38;6302133;22;20195;-81
2023/08/17 03:02:06;;;;;;;6.45;5.85;;;;;;;23.34;80.34;95684.22;6302836;22;20175;-81
2023/08/17 03:04:33;;;;;;;6.38;5.80;;;;;;;23.38;79.96;95688.72;6303719;22;20171;-81
2023/08/17 03:07:01;;;;;;;6.05;5.53;;;;;;;23.39;80.11;95686.91;6303873;22;20522;-81
2023/08/17 03:09:27;;;;;;;5.82;5.20;;;;;;;23.37;79.20;95673.22;6304328;22;20178;-81
2023/08/17 03:11:54;;;;;;;7.70;5.72;;;;;;;23.36;79.04;95676.88;6304035;22;20221;-80
2023/08/17 03:14:20;;;;;;;5.88;5.47;;;;;;;23.42;78.94;95673.25;6304038;22;20507;-82
2023/08/17 03:16:47;;;;;;;6.43;5.40;;;;;;;23.48;78.53;95666.97;6304216;22;20653;-81
2023/08/17 03:19:13;;;;;;;7.03;5.68;;;;;;;23.51;78.67;95647.25;6303666;22;20191;-81
2023/08/17 03:21:39;;;;;;;6.60;6.00;;;;;;;23.54;77.84;95647.56;6303211;22;20171;-80
2023/08/17 03:24:08;;;;;;;5.88;5.47;;;;;;;23.56;77.56;95640.22;6302953;22;20183;-81
2023/08/17 03:26:34;;;;;;;6.10;5.60;;;;;;;23.55;77.68;95638.66;6302911;22;20214;-81
2023/08/17 03:29:01;;;;;;;5.88;5.47;;;;;;;23.51;77.50;95637.53;6303091;22;20175;-81
2023/08/17 03:31:27;;;;;;;5.40;5.00;;;;;;;23.54;76.82;95623.91;6302968;22;20551;-81
2023/08/17 03:33:55;;;;;;;5.90;5.40;;;;;;;23.46;77.69;95634.13;6302454;22;20183;-82
2023/08/17 03:36:21;;;;;;;5.90;5.40;;;;;;;23.39;77.77;95640.38;6302180;22;20739;-81
2023/08/17 03:38:48;;;;;;;6.18;5.68;;;;;;;23.17;79.11;95665.22;6302988;22;20689;-82
2023/08/17 03:41:15;;;;;;;6.03;5.50;;;;;;;23.05;80.05;95681.97;6303607;22;20175;-81
2023/08/17 03:43:42;;;;;;;6.22;5.72;;;;;;;23.10;79.93;95678.56;6303018;22;20225;-83
2023/08/17 03:46:08;;;;;;;6.78;5.40;;;;;;;23.03;79.96;95675.38;6303794;22;20199;-81
2023/08/17 03:48:35;;;;;;;6.40;5.90;;;;;;;22.65;82.11;95716.53;6303189;22;20171;-81
2023/08/17 03:51:02;;;;;;;6.20;5.60;;;;;;;22.45;83.83;95758.31;6303173;22;20182;-81
2023/08/17 03:53:28;;;;;;;6.00;5.50;;;;;;;22.53;83.30;95752.63;6303524;22;20257;-81
2023/08/17 03:55:55;;;;;;;6.72;6.10;;;;;;;22.62;82.79;95735.41;6303251;22;20207;-81
2023/08/17 03:58:23;;;;;;;6.00;5.50;;;;;;;22.73;82.33;95728.41;6303729;22;20206;-81
2023/08/17 04:00:52;;;;;;;5.97;5.55;;;;;;;22.67;82.58;95732.81;6302753;22;20833;-82
2023/08/17 04:03:19;;;;;;;5.95;5.55;;;;;;;22.73;81.86;95728.41;6303010;22;20178;-81
2023/08/17 04:05:46;;;;;;;6.35;5.63;;;;;;;22.73;81.49;95728.41;6302806;22;20763;-81
2023/08/17 04:08:12;;;;;;;5.93;5.53;;;;;;;22.75;81.11;95718.44;6303179;22;20221;-81
2023/08/17 04:10:39;;;;;;;5.60;5.20;;;;;;;22.82;80.95;95711.19;6303361;22;20175;-81
2023/08/17 04:13:06;;;;;;;6.43;5.78;;;;;;;22.81;80.46;95714.06;6303528;22;20187;-81
2023/08/17 04:15:34;;;;;;;6.00;5.50;;;;;;;22.68;80.96;95718.66;6304106;22;20199;-80
2023/08/17 04:18:00;;;;;;;6.13;5.60;;;;;;;22.64;81.04;95730.69;6303841;22;20178;-82
2023/08/17 04:20:26;;;;;;;5.75;5.35;;;;;;;22.60;81.14;95726.19;6302568;22;20195;-81
2023/08/17 04:22:55;;;;;;;6.45;5.85;;;;;;;22.65;80.48;95727.03;6304378;22;20179;-81
2023/08/17 04:25:21;;;;;;;6.15;5.65;;;;;;;22.67;80.68;95732.03;6303741;22;20572;-80
2023/08/17 04:27:48;;;;;;;6.20;5.70;;;;;;;22.70;81.00;95729.72;6306262;22;20172;-82
2023/08/17 04:30:14;;;;;;;5.88;5.38;;;;;;;22.74;80.28;95716.84;6303278;22;20175;-81
2023/08/17 04:32:42;;;;;;;6.22;5.68;;;;;;;22.56;81.06;95728.50;6303224;22;20176;-81
2023/08/17 04:35:09;;;;;;;6.45;5.85;;;;;;;22.34;82.83;95767.09;6303235;22;20195;-80
2023/08/17 04:37:36;;;;;;;6.18;5.68;;;;;;;22.40;83.04;95780.03;6301996;22;20236;-81
2023/08/17 04:40:02;;;;;;;6.25;5.28;;;;;;;22.52;82.29;95765.97;6302744;22;20195;-81
2023/08/17 04:42:29;;;;;;;6.55;6.05;;;;;;;22.57;81.69;95753.72;6302730;22;20207;-80
2023/08/17 04:44:55;;;;;;;6.25;5.65;;;;;;;22.58;81.65;95751.88;6301817;22;20195;-80
2023/08/17 04:47:22;;;;;;;6.78;5.90;;;;;;;22.66;81.49;95754.88;6301069;22;20510;-80
2023/08/17 04:49:49;;;;;;;6.30;5.75;;;;;;;22.73;81.33;95760.69;6302463;22;20635;-80
2023/08/17 04:52:16;;;;;;;6.75;6.15;;;;;;;22.78;80.82;95748.69;6302276;22;20567;-80
2023/08/17 04:54:42;;;;;;;6.82;6.28;;;;;;;22.84;80.35;95734.56;6302303;22;20190;-81
2023/08/17 04:57:09;;;;;;;6.72;6.03;;;;;;;22.78;79.98;95730.31;6303206;22;20179;-80
2023/08/17 04:59:35;;;;;;;6.55;5.85;;;;;;;22.86;79.75;95733.28;6302956;22;20195;-81
2023/08/17 05:02:01;;;;;;;6.13;5.72;;;;;;;22.93;79.55;95718.09;6302057;22;20520;-80
2023/08/17 05:04:28;;;;;;;6.60;5.95;;;;;;;22.98;78.96;95714.72;6301987;22;20645;-81
2023/08/17 05:06:56;;;;;;;6.88;6.28;;;;;;;23.06;78.85;95709.03;6301628;22;20176;-81
2023/08/17 05:09:22;;;;;;;6.38;5.80;;;;;;;23.09;78.99;95698.03;6302081;22;20175;-80
2023/08/17 05:11:49;;;;;;;7.05;5.90;;;;;;;23.18;78.76;95704.38;6302748;22;20172;-83
2023/08/17 05:14:15;;;;;;;7.75;6.05;;;;;;;23.27;78.30;95692.34;6301581;22;20677;-82
2023/08/17 05:16:41;;;;;;;6.35;5.75;;;;;;;23.34;78.33;95698.16;6302292;22;20550;-82
2023/08/17 05:19:08;;;;;;;6.60;5.95;;;;;;;23.37;77.91;95691.63;6301692;22;20191;-83
2023/08/17 05:21:35;;;;;;;6.55;5.95;;;;;;;23.36;77.66;95690.03;6302047;22;20176;-82
2023/08/17 05:24:04;;;;;;;6.60;6.10;;;;;;;23.44;77.39;95681.69;6303581;22;20550;-81
2023/08/17 05:26:30;;;;;;;7.05;5.82;;;;;;;23.56;77.18;95679.66;6304102;22;20219;-81
2023/08/17 05:28:57;;;;;;;6.93;6.25;;;;;;;23.59;76.77;95681.00;6305000;22;20175;-81
2023/08/17 05:31:23;;;;;;;6.78;6.20;;;;;;;23.64;76.74;95683.66;6305075;22;20175;-81
2023/08/17 05:33:50;;;;;;;7.10;6.40;;;;;;;23.69;76.70;95670.50;6305361;22;20187;-81
2023/08/17 05:36:16;;;;;;;6.70;6.10;;;;;;;23.74;76.25;95662.66;6304146;22;20504;-81
2023/08/17 05:38:42;;;;;;;6.38;5.88;;;;;;;23.81;76.14;95657.94;6304471;22;20175;-81
2023/08/17 05:41:10;;;;;;;6.75;6.13;;;;;;;23.93;75.72;95655.88;6304146;22;20179;-81
2023/08/17 05:43:37;;;;;;;6.78;6.25;;;;;;;23.79;76.32;95667.16;6304226;22;20175;-81
2023/08/17 05:46:03;;;;;;;6.20;5.65;;;;;;;23.88;75.72;95662.94;6304459;22;20219;-80
2023/08/17 05:48:30;;;;;;;6.57;6.07;;;;;;;23.97;75.79;95656.16;6307056;22;20171;-81
2023/08/17 05:50:57;;;;;;;6.25;5.82;;;;;;;24.00;75.07;95653.00;6303797;22;20767;-80
2023/08/17 05:53:23;;;;;;;6.63;6.03;;;;;;;24.04;75.16;95660.13;6303869;22;20178;-80
2023/08/17 05:55:49;;;;;;;9.35;6.60;;;;;;;24.10;74.63;95634.59;6303485;22;20206;-80
2023/08/17 05:58:17;;;;;;;8.48;6.38;;;;;;;24.13;74.38;95639.34;6303455;22;20172;-81
2023/08/17 06:00:44;;;;;;;6.00;5.43;;;;;;;24.05;75.00;95655.66;6303282;22;20191;-81
2023/08/17 06:03:10;;;;;;;6.70;6.03;;;;;;;24.12;74.83;95656.19;6304753;22;20182;-80
2023/08/17 06:05:37;;;;;;;9.38;6.18;;;;;;;24.19;74.84;95646.22;6303581;22;20735;-81
2023/08/17 06:08:03;;;;;;;8.13;6.10;;;;;;;24.25;74.13;95639.13;6304834;22;20176;-81
2023/08/17 06:10:30;;;;;;;6.07;5.57;;;;;;;24.32;74.11;95643.09;6304396;22;20197;-80
2023/08/17 06:12:57;;;;;;;6.65;6.15;;;;;;;24.41;74.44;95640.75;6303480;22;20184;-81
2023/08/17 06:15:25;;;;;;;6.22;5.72;;;;;;;24.50;74.01;95626.00;6304181;22;20502;-82
2023/08/17 06:17:52;;;;;;;6.75;6.20;;;;;;;24.54;73.38;95616.53;6304627;22;20167;-82
2023/08/17 06:20:19;;;;;;;6.50;5.90;;;;;;;24.58;73.08;95599.16;6304289;22;20191;-83
2023/08/17 06:22:45;;;;;;;6.10;5.60;;;;;;;24.56;73.09;95606.53;6304518;22;20187;-81
2023/08/17 06:25:12;;;;;;;10.32;6.00;;;;;;;24.63;73.45;95614.94;6304148;22;20199;-82
2023/08/17 06:27:38;;;;;;;7.75;6.10;;;;;;;24.72;73.21;95615.22;6303837;22;20785;-82
2023/08/17 06:30:06;;;;;;;6.60;6.10;;;;;;;24.68;74.56;95651.81;6303184;22;20649;-81
2023/08/17 06:32:34;;;;;;;6.38;5.78;;;;;;;24.76;73.74;95622.31;6303493;22;20175;-81
2023/08/17 06:35:00;;;;;;;6.53;5.85;;;;;;;24.80;73.05;95612.06;6303068;22;20521;-82
2023/08/17 06:37:27;;;;;;;6.10;5.40;;;;;;;24.85;72.66;95603.34;6304527;22;20175;-81
2023/08/17 06:39:53;;;;;;;5.60;5.20;;;;;;;24.86;71.72;95575.94;6304711;22;20222;-81
2023/08/17 06:42:20;;;;;;;5.38;4.97;;;;;;;24.97;71.19;95565.16;6304477;22;20175;-81
2023/08/17 06:44:46;;;;;;;5.82;5.30;;;;;;;24.97;71.42;95564.38;6303968;22;20860;-81
2023/08/17 06:47:12;;;;;;;6.60;5.45;;;;;;;25.02;70.55;95551.16;6303305;22;20203;-81
2023/08/17 06:49:40;;;;;;;5.68;5.20;;;;;;;25.13;70.66;95542.97;6303640;22;20171;-80
2023/08/17 06:52:07;;;;;;;6.05;5.57;;;;;;;25.13;70.14;95540.34;6304506;22;20176;-81
2023/08/17 06:54:33;;;;;;;6.32;5.55;;;;;;;25.17;70.53;95537.97;6303107;22;20190;-82
2023/08/17 06:56:59;;;;;;;6.47;5.70;;;;;;;25.26;69.65;95523.16;6304147;22;20176;-81
2023/08/17 06:59:29;;;;;;;8.13;6.03;;;;;;;25.34;69.41;95525.25;6303501;22;20720;-81
2023/08/17 07:01:55;;;;;;;5.70;5.20;;;;;;;25.45;69.30;95525.97;6302869;22;20175;-81
2023/08/17 07:04:21;;;;;;;6.35;5.95;;;;;;;25.50;68.06;95488.25;6303751;22;20175;-81
2023/08/17 07:06:49;;;;;;;6.65;6.05;;;;;;;25.61;67.71;95484.47;6304141;22;20199;-80
2023/08/17 07:09:16;;;;;;;6.28;5.68;;;;;;;25.73;67.10;95448.06;6303279;22;20168;-81
2023/08/17 07:11:42;;;;;;;6.40;5.85;;;;;;;25.72;65.51;95420.88;6304051;22;20210;-81
2023/08/17 07:14:09;;;;;;;6.18;5.60;;;;;;;25.85;65.14;95416.03;6304106;22;20171;-81
2023/08/17 07:16:35;;;;;;;6.38;5.88;;;;;;;26.03;64.86;95413.50;6304545;22;20191;-81
2023/08/17 07:19:03;;;;;;;6.72;5.82;;;;;;;26.15;64.53;95397.31;6303826;22;20490;-80
2023/08/17 07:21:29;;;;;;;6.80;6.18;;;;;;;26.31;64.20;95371.56;6304006;22;20191;-81
2023/08/17 07:23:57;;;;;;;6.85;6.13;;;;;;;26.40;63.22;95360.09;6303729;22;20171;-81
2023/08/17 07:26:23;;;;;;;6.07;5.57;;;;;;;26.54;62.83;95343.59;6303814;22;20195;-80
2023/08/17 07:28:50;;;;;;;5.85;5.35;;;;;;;26.63;61.83;95300.41;6303809;22;20194;-81
2023/08/17 07:31:16;;;;;;;6.32;5.82;;;;;;;26.71;61.31;95294.50;6303731;22;20486;-81
2023/08/17 07:33:43;;;;;;;6.65;6.10;;;;;;;26.82;62.08;95313.63;6303009;22;20685;-80
2023/08/17 07:36:09;;;;;;;6.10;5.60;;;;;;;26.90;61.56;95293.69;6302699;22;20196;-81
2023/08/17 07:38:35;;;;;;;6.60;6.05;;;;;;;26.93;61.17;95274.63;6304138;22;20176;-81
2023/08/17 07:41:03;;;;;;;6.25;5.75;;;;;;;27.05;61.15;95278.44;6304086;22;20207;-80
2023/08/17 07:43:30;;;;;;;6.40;5.38;;;;;;;27.20;60.09;95260.75;6302702;22;20483;-83
2023/08/17 07:45:57;;;;;;;6.00;5.50;;;;;;;27.31;61.05;95283.31;6302303;22;20202;-83
2023/08/17 07:48:24;;;;;;;6.72;6.13;;;;;;;27.43;60.23;95249.28;6306167;22;20183;-81
2023/08/17 07:50:51;;;;;;;6.85;6.15;;;;;;;27.47;59.18;95208.72;6307415;22;20171;-81
2023/08/17 07:53:18;;;;;;;7.47;5.85;;;;;;;27.62;59.03;95207.69;6307377;22;20225;-81
2023/08/17 07:55:44;;;;;;;6.28;5.68;;;;;;;27.73;58.52;95184.47;6306656;22;20196;-82
2023/08/17 07:58:12;;;;;;;5.65;5.25;;;;;;;27.79;57.86;95168.19;6306916;22;20171;-81
2023/08/17 08:00:39;;;;;;;6.05;5.65;;;;;;;27.87;56.96;95131.56;6306836;22;20199;-81
2023/08/17 08:03:05;;;;;;;6.22;5.65;;;;;;;27.78;56.94;95108.41;6308325;22;20176;-81
2023/08/17 08:05:32;;;;;;;6.03;5.55;;;;;;;27.91;57.79;95138.56;6307135;22;20191;-82
2023/08/17 08:07:58;;;;;;;5.47;5.05;;;;;;;28.11;57.24;95119.63;6308750;22;20176;-82
2023/08/17 08:10:25;;;;;;;6.20;5.60;;;;;;;28.16;56.13;95093.03;6310460;22;20172;-81
2023/08/17 08:12:51;;;;;;;6.25;5.68;;;;;;;28.21;56.21;95080.81;6305472;22;20171;-80
2023/08/17 08:15:19;;;;;;;7.35;5.65;;;;;;;28.30;56.10;95071.03;6305634;22;20258;-81
2023/08/17 08:17:46;;;;;;;5.60;5.13;;;;;;;28.47;55.98;95082.56;6305920;22;20191;-81
2023/08/17 08:20:12;;;;;;;5.57;5.18;;;;;;;28.70;54.93;95051.50;6304748;22;20561;-82
2023/08/17 08:22:38;;;;;;;5.57;5.18;;;;;;;28.92;54.44;95013.59;6304345;22;20175;-82
2023/08/17 08:25:05;;;;;;;5.75;5.07;;;;;;;29.11;54.08;95008.84;6305314;22;20229;-81
2023/08/17 08:27:32;;;;;;;5.88;5.47;;;;;;;29.28;53.60;94959.59;6305133;22;20182;-81
2023/08/17 08:29:58;;;;;;;6.03;4.90;;;;;;;29.37;53.25;94934.66;6305952;22;20194;-81
2023/08/17 08:32:26;;;;;;;6.70;5.30;;;;;;;29.57;53.01;94954.50;6306035;22;20175;-82
2023/08/17 08:34:52;;;;;;;5.90;5.40;;;;;;;29.73;53.56;94960.91;6304359;22;20572;-82
2023/08/17 08:37:18;;;;;;;6.78;5.63;;;;;;;29.81;52.24;94919.53;6305213;22;20182;-81
2023/08/17 08:39:51;;;;;;;7.30;6.70;;;;;;;29.76;52.58;94935.63;6303720;22;20175;-81
2023/08/17 08:42:18;;;;;;;6.47;5.88;;;;;;;29.73;51.70;94904.41;6304752;22;20171;-82
2023/08/17 08:44:45;;;;;;;6.15;5.65;;;;;;;29.75;52.19;94896.91;6304324;22;20179;-81
2023/08/17 08:47:12;;;;;;;6.88;6.18;;;;;;;29.78;51.76;94885.66;6304214;22;20658;-82
2023/08/17 08:49:45;;;;;;;5.95;5.50;;;;;;;29.97;51.36;94854.22;6304502;22;20702;-81
2023/08/17 08:52:18;;;;;;;6.47;5.88;;;;;;;30.11;51.53;94868.13;6304485;22;20171;-81
2023/08/17 08:54:50;;;;;;;5.57;5.07;;;;;;;30.21;50.72;94837.78;6302803;22;20189;-81
2023/08/17 08:57:22;;;;;;;6.40;5.43;;;;;;;30.28;50.24;94816.81;6305558;22;20242;-82
2023/08/17 08:59:48;;;;;;;5.68;5.18;;;;;;;30.27;50.36;94827.75;6306797;22;20229;-82
2023/08/17 09:02:16;;;;;;;5.97;5.50;;;;;;;30.37;49.77;94790.22;6305607;22;20518;-82
2023/08/17 09:04:45;;;;;;;7.65;5.55;;;;;;;30.42;49.35;94766.09;6306490;22;20178;-82
2023/08/17 09:07:13;;;;;;;6.10;5.50;;;;;;;30.42;49.84;94790.78;6305974;22;20241;-82
2023/08/17 09:09:39;;;;;;;6.32;5.10;;;;;;;30.65;49.78;94812.56;6305379;22;20182;-82
2023/08/17 09:12:08;;;;;;;5.45;5.10;;;;;;;30.79;49.09;94743.22;6304291;22;20186;-82
2023/08/17 09:14:34;;;;;;;5.30;4.80;;;;;;;30.94;48.16;94724.03;6305091;22;20171;-82
2023/08/17 09:17:01;;;;;;;6.43;5.50;;;;;;;31.16;48.50;94721.03;6305235;22;20179;-82
2023/08/17 09:19:27;;;;;;;5.40;5.00;;;;;;;31.28;47.76;94692.91;6305787;22;20172;-82
2023/08/17 09:21:55;;;;;;;5.90;5.40;;;;;;;31.31;48.68;94716.19;6305125;22;20195;-82
2023/08/17 09:24:22;;;;;;;6.22;5.70;;;;;;;31.25;47.58;94654.44;6304916;22;20175;-82
2023/08/17 09:26:50;;;;;;;6.20;5.68;;;;;;;31.19;47.20;94656.53;6304558;22;20234;-82
2023/08/17 09:29:20;;;;;;;5.78;5.22;;;;;;;31.27;47.13;94656.75;6305336;22;20175;-81
2023/08/17 09:31:47;;;;;;;5.95;5.40;;;;;;;31.42;47.07;94640.94;6305277;22;20673;-82
2023/08/17 09:34:15;;;;;;;5.47;5.07;;;;;;;31.33;46.40;94594.25;6305406;22;20190;-82
2023/08/17 09:36:42;;;;;;;5.70;5.20;;;;;;;31.45;46.50;94602.25;6305463;22;20246;-81
2023/08/17 09:39:09;;;;;;;5.75;5.35;;;;;;;31.64;46.34;94599.03;6305445;22;20244;-82
2023/08/17 09:41:40;;;;;;;5.97;5.47;;;;;;;31.72;46.42;94616.81;6305709;22;20573;-82
2023/08/17 09:44:07;;;;;;;11.82;6.05;;;;;;;31.83;45.21;94570.75;6303861;22;20233;-82
2023/08/17 09:46:34;;;;;;;11.27;5.32;;;;;;;32.06;45.18;94572.91;6304195;22;20196;-82
2023/08/17 09:49:04;;;;;;;15.70;6.32;;;;;;;32.22;44.92;94547.91;6304290;22;20183;-82
2023/08/17 09:51:30;;;;;;;17.38;6.40;;;;;;;32.49;44.86;94543.72;6304504;22;20156;-82
2023/08/17 09:53:58;;;;;;;5.30;5.00;;;;;;;32.44;43.78;94484.53;6304495;22;20490;-82
2023/08/17 09:56:28;;;;;;;5.68;5.13;;;;;;;32.14;44.02;94460.91;6305829;22;20199;-82
2023/08/17 09:58:54;;;;;;;5.60;5.13;;;;;;;32.00;44.50;94502.34;6304471;22;20179;-82
2023/08/17 10:01:22;;;;;;;5.00;4.70;;;;;;;32.00;44.46;94502.34;6304691;22;20195;-82
2023/08/17 10:03:50;;;;;;;5.53;4.78;;;;;;;32.03;43.85;94481.16;6306291;22;20214;-82
2023/08/17 10:06:23;;;;;;;5.53;5.13;;;;;;;31.98;44.94;94531.97;6305724;22;20195;-82
2023/08/17 10:08:53;;;;;;;5.70;5.15;;;;;;;31.77;44.93;94526.81;6306836;22;20618;-82
2023/08/17 10:11:22;;;;;;;5.63;5.15;;;;;;;31.57;45.15;94551.66;6307541;22;20152;-81
2023/08/17 10:13:57;;;;;;;5.50;5.10;;;;;;;31.60;46.01;94596.25;6306590;22;20815;-82
2023/08/17 10:16:29;;;;;;;5.20;4.70;;;;;;;31.74;45.40;94578.09;6305382;22;20220;-82
2023/08/17 10:19:05;;;;;;;5.57;4.75;;;;;;;31.60;44.88;94529.72;6305739;22;20538;-81
2023/08/17 10:21:37;;;;;;;5.43;4.88;;;;;;;31.29;45.23;94521.53;6305927;22;20186;-82
2023/08/17 10:24:05;;;;;;;4.47;4.18;;;;;;;31.38;45.05;94532.84;6306366;22;20155;-81
2023/08/17 10:26:32;;;;;;;5.25;4.20;;;;;;;31.32;44.67;94496.94;6307045;22;20196;-82
2023/08/17 10:29:02;;;;;;;5.03;4.25;;;;;;;31.20;44.29;94468.44;6306656;22;20179;-82
2023/08/17 10:31:29;;;;;;;5.20;4.70;;;;;;;31.14;43.78;94465.25;6305613;22;20547;-81
2023/08/17 10:33:57;;;;;;;5.13;4.65;;;;;;;31.33;44.52;94490.50;6305523;22;20167;-81
2023/08/17 10:36:24;;;;;;;5.20;4.80;;;;;;;31.61;44.35;94501.97;6306010;22;20199;-81
2023/08/17 10:39:18;;;;;;;5.25;4.85;;;;;;;31.81;43.26;94455.03;6305600;22;20178;-81
2023/08/17 10:41:47;;;;;;;6.53;5.35;;;;;;;31.67;43.93;94481.28;6306644;22;20183;-82
2023/08/17 10:44:15;;;;;;;5.88;5.28;;;;;;;31.63;44.59;94515.75;6306433;22;20665;-81
2023/08/17 10:46:43;;;;;;;5.93;5.43;;;;;;;31.67;45.82;94595.72;6306778;22;20192;-83
2023/08/17 10:49:26;;;;;;;6.07;5.57;;;;;;;31.58;46.58;94639.16;6305105;22;20233;-84
2023/08/17 10:52:05;;;;;;;6.18;5.60;;;;;;;31.77;47.78;94699.09;6305717;22;20201;-84
2023/08/17 10:54:38;;;;;;;6.53;5.93;;;;;;;31.89;48.17;94723.84;6304983;22;20187;-84
2023/08/17 10:57:25;;;;;;;8.32;5.68;;;;;;;31.82;47.17;94674.91;6304051;22;20164;-84
2023/08/17 11:00:15;;;;;;;6.18;5.65;;;;;;;31.55;47.22;94652.38;6302527;22;20174;-82
2023/08/17 11:02:43;;;;;;;5.93;5.43;;;;;;;31.54;47.68;94702.16;6304714;22;20156;-82
2023/08/17 11:05:12;;;;;;;5.70;5.30;;;;;;;31.49;47.82;94683.75;6303852;22;20512;-82
2023/08/17 11:07:42;;;;;;;6.40;5.65;;;;;;;31.36;48.00;94700.81;6304755;22;20194;-82
2023/08/17 11:10:12;;;;;;;6.15;5.65;;;;;;;31.23;48.51;94720.47;6305721;22;20179;-82
2023/08/17 11:12:39;;;;;;;6.43;5.72;;;;;;;31.15;48.55;94732.78;6304495;22;20190;-82
2023/08/17 11:15:08;;;;;;;6.65;6.15;;;;;;;31.19;49.47;94786.84;6305343;22;20195;-82
2023/08/17 11:17:34;;;;;;;8.68;6.65;;;;;;;31.38;48.03;94713.75;6305279;22;20176;-83
2023/08/17 11:20:00;;;;;;;5.97;5.50;;;;;;;31.42;45.99;94611.66;6304240;22;20201;-82
2023/08/17 11:22:28;;;;;;;6.53;5.93;;;;;;;31.62;45.79;94588.72;6305369;22;20195;-82
2023/08/17 11:24:55;;;;;;;6.03;5.53;;;;;;;31.93;46.58;94652.84;6304987;22;20199;-83
2023/08/17 11:27:21;;;;;;;6.50;5.90;;;;;;;32.21;46.83;94644.16;6304823;22;20864;-82
2023/08/17 11:29:48;;;;;;;6.30;5.75;;;;;;;32.49;46.76;94644.22;6304796;22;20183;-82
2023/08/17 11:32:18;;;;;;;6.10;5.50;;;;;;;32.51;45.17;94570.81;6304552;22;20550;-83
2023/08/17 11:34:44;;;;;;;6.28;5.78;;;;;;;32.30;45.01;94527.59;6304003;22;20693;-82